Time;durP1;ratioP1;P1;durP2;ratioP2;P2;SDS_P1;SDS_P2;PMS_P1;PMS_P2;Temp;Humidity;BMP_temperature;BMP_pressure;BME280_temperature;BME280_humidity;BME280_pressure;Samples;Min_cycle;Max_cycle;Signal;HPM_P1;HPM_P2
2024/03/23 00:01:37;;;;;;;;;;;8.50;99.90;;;;;;5053753;28;19905;-69
2024/03/23 00:04:03;;;;;;;;;;;8.20;99.90;;;;;;5053681;28;19911;-69
2024/03/23 00:06:28;;;;;;;;;;;8.40;99.90;;;;;;5053385;28;19947;-69
2024/03/23 00:08:55;;;;;;;;;;;8.50;99.90;;;;;;5053526;28;19952;-69
2024/03/23 00:11:21;;;;;;;;;;;8.40;99.90;;;;;;5053569;28;19915;-69
2024/03/23 00:13:47;;;;;;;;;;;8.40;99.90;;;;;;5053544;28;19991;-68
2024/03/23 00:16:13;;;;;;;;;;;8.30;99.90;;;;;;5053190;28;19905;-68
2024/03/23 00:18:39;;;;;;;;;;;8.30;99.90;;;;;;5053337;28;19959;-68
2024/03/23 00:21:05;;;;;;;;;;;8.30;99.90;;;;;;5053361;28;19943;-68
2024/03/23 00:23:31;;;;;;;;;;;8.10;99.90;;;;;;5053306;28;20315;-69
2024/03/23 00:25:57;;;;;;;;;;;8.30;99.90;;;;;;5053231;28;20368;-68
2024/03/23 00:28:23;;;;;;;;;;;8.30;99.90;;;;;;5053170;28;19904;-69
2024/03/23 00:30:49;;;;;;;;;;;8.00;99.90;;;;;;5053148;28;20387;-69
2024/03/23 00:33:15;;;;;;;;;;;8.20;99.90;;;;;;5053055;28;19967;-68
2024/03/23 00:35:41;;;;;;;;;;;8.30;99.90;;;;;;5052820;28;19940;-68
2024/03/23 00:38:07;;;;;;;;;;;8.20;99.90;;;;;;5052983;28;19944;-69
2024/03/23 00:40:33;;;;;;;;;;;8.20;99.90;;;;;;5052822;28;20299;-70
2024/03/23 00:42:59;;;;;;;;;;;8.40;99.90;;;;;;5052940;28;19951;-70
2024/03/23 00:45:25;;;;;;;;;;;8.20;99.90;;;;;;5052515;28;19908;-70
2024/03/23 00:47:51;;;;;;;;;;;8.10;99.90;;;;;;5052725;28;20376;-70
2024/03/23 00:50:17;;;;;;;;;;;8.10;99.90;;;;;;5052850;28;19936;-70
2024/03/23 00:52:45;;;;;;;;;;;8.10;99.90;;;;;;5052775;28;20368;-70
2024/03/23 00:55:11;;;;;;;;;;;8.00;99.90;;;;;;5052759;28;19948;-69
2024/03/23 00:57:36;;;;;;;;;;;8.10;99.90;;;;;;5052402;28;19905;-70
2024/03/23 01:00:02;;;;;;;;;;;7.90;99.90;;;;;;5052677;28;19927;-70
2024/03/23 01:02:28;;;;;;;;;;;7.70;99.90;;;;;;5052649;28;19958;-69
2024/03/23 01:04:53;;;;;;;;;;;7.70;99.90;;;;;;5052661;28;19908;-69
2024/03/23 01:07:19;;;;;;;;;;;7.60;99.90;;;;;;5052153;28;20375;-69
2024/03/23 01:09:44;;;;;;;;;;;7.50;99.90;;;;;;5052552;28;19923;-69
2024/03/23 01:12:10;;;;;;;;;;;7.40;99.90;;;;;;5052555;28;20345;-69
2024/03/23 01:14:35;;;;;;;;;;;7.40;99.90;;;;;;5052391;28;19935;-69
2024/03/23 01:17:01;;;;;;;;;;;7.50;99.90;;;;;;5052034;28;20364;-69
2024/03/23 01:19:27;;;;;;;;;;;7.50;99.90;;;;;;5052403;28;19905;-70
2024/03/23 01:21:52;;;;;;;;;;;7.40;99.90;;;;;;5052427;28;19908;-69
2024/03/23 01:24:18;;;;;;;;;;;7.40;99.90;;;;;;5052327;28;20280;-70
2024/03/23 01:26:43;;;;;;;;;;;7.20;99.90;;;;;;5051926;28;19916;-70
2024/03/23 01:29:09;;;;;;;;;;;7.40;99.90;;;;;;5052264;28;20271;-70
2024/03/23 01:31:34;;;;;;;;;;;7.00;99.90;;;;;;5052286;28;19916;-70
2024/03/23 01:34:00;;;;;;;;;;;7.30;99.90;;;;;;5052278;28;19905;-69
2024/03/23 01:36:25;;;;;;;;;;;7.20;99.90;;;;;;5052020;28;19992;-70
2024/03/23 01:38:51;;;;;;;;;;;7.30;99.90;;;;;;5052138;28;19905;-69
2024/03/23 01:41:17;;;;;;;;;;;7.10;99.90;;;;;;5052369;28;19904;-69
2024/03/23 01:43:43;;;;;;;;;;;7.10;99.90;;;;;;5052118;28;20254;-69
2024/03/23 01:46:08;;;;;;;;;;;6.80;99.90;;;;;;5054671;28;19912;-69
2024/03/23 01:48:34;;;;;;;;;;;6.70;99.90;;;;;;5056172;28;20352;-69
2024/03/23 01:50:59;;;;;;;;;;;6.70;99.90;;;;;;5056193;28;20003;-69
2024/03/23 01:53:25;;;;;;;;;;;6.40;99.90;;;;;;5056161;28;19947;-68
2024/03/23 01:55:51;;;;;;;;;;;6.70;99.90;;;;;;5055917;28;19911;-68
2024/03/23 01:58:17;;;;;;;;;;;6.40;99.90;;;;;;5055975;28;19905;-68
2024/03/23 02:00:42;;;;;;;;;;;6.30;99.90;;;;;;5056008;28;19909;-68
2024/03/23 02:03:24;;;;;;;;;;;6.30;99.90;;;;;;5056071;28;19905;-68
2024/03/23 02:05:50;;;;;;;;;;;6.20;99.90;;;;;;5055547;28;19912;-68
2024/03/23 02:08:17;;;;;;;;;;;6.50;99.90;;;;;;5055867;28;19912;-68
2024/03/23 02:10:43;;;;;;;;;;;6.20;99.90;;;;;;5055918;28;20315;-68
2024/03/23 02:13:09;;;;;;;;;;;6.20;99.90;;;;;;5055764;28;19910;-69
2024/03/23 02:15:34;;;;;;;;;;;6.40;99.90;;;;;;5055549;28;19908;-69
2024/03/23 02:18:00;;;;;;;;;;;6.40;99.90;;;;;;5055557;28;19913;-69
2024/03/23 02:20:25;;;;;;;;;;;6.50;99.90;;;;;;5055618;28;19993;-69
2024/03/23 02:22:52;;;;;;;;;;;6.50;99.90;;;;;;5055619;28;19905;-68
2024/03/23 02:25:18;;;;;;;;;;;6.50;99.90;;;;;;5055568;28;19940;-68
2024/03/23 02:27:43;;;;;;;;;;;6.50;99.90;;;;;;5055178;28;19978;-68
2024/03/23 02:30:09;;;;;;;;;;;6.50;99.90;;;;;;5055533;28;19904;-68
2024/03/23 02:32:34;;;;;;;;;;;6.40;99.90;;;;;;5055570;28;19916;-69
2024/03/23 02:35:00;;;;;;;;;;;6.40;99.90;;;;;;5055423;28;20007;-69
2024/03/23 02:37:26;;;;;;;;;;;6.40;99.90;;;;;;5055232;28;19905;-69
2024/03/23 02:39:51;;;;;;;;;;;6.40;99.90;;;;;;5055346;28;20058;-69
2024/03/23 02:42:17;;;;;;;;;;;6.20;99.90;;;;;;5055238;28;19905;-69
2024/03/23 02:44:43;;;;;;;;;;;6.30;99.90;;;;;;5055219;28;19909;-68
2024/03/23 02:47:08;;;;;;;;;;;6.30;99.90;;;;;;5054813;28;19930;-68
2024/03/23 02:49:34;;;;;;;;;;;6.30;99.90;;;;;;5055127;28;20395;-68
2024/03/23 02:51:59;;;;;;;;;;;6.30;99.90;;;;;;5055130;28;19909;-68
2024/03/23 02:54:25;;;;;;;;;;;6.20;99.90;;;;;;5055037;28;19909;-69
2024/03/23 02:56:50;;;;;;;;;;;6.50;99.90;;;;;;5053348;28;20389;-69
2024/03/23 02:59:16;;;;;;;;;;;6.50;99.90;;;;;;5055009;28;19905;-69
2024/03/23 03:01:41;;;;;;;;;;;6.50;99.90;;;;;;5054950;28;19961;-68
2024/03/23 03:04:07;;;;;;;;;;;6.50;99.90;;;;;;5054842;28;19947;-68
2024/03/23 03:06:32;;;;;;;;;;;6.40;99.90;;;;;;5053291;28;20386;-69
2024/03/23 03:08:58;;;;;;;;;;;6.50;99.90;;;;;;5054738;28;19912;-69
2024/03/23 03:11:23;;;;;;;;;;;6.60;99.90;;;;;;5054737;28;20399;-69
2024/03/23 03:13:48;;;;;;;;;;;6.50;99.90;;;;;;5054684;28;20001;-69
2024/03/23 03:16:14;;;;;;;;;;;6.50;99.90;;;;;;5054417;28;19909;-69
2024/03/23 03:18:40;;;;;;;;;;;6.50;99.90;;;;;;5054383;28;19919;-69
2024/03/23 03:21:10;;;;;;;;;;;6.40;99.90;;;;;;5054564;28;19905;-69
2024/03/23 03:23:39;;;;;;;;;;;6.50;99.90;;;;;;5054466;28;19950;-69
2024/03/23 03:26:05;;;;;;;;;;;6.60;99.90;;;;;;5054192;28;20335;-69
2024/03/23 03:28:32;;;;;;;;;;;6.60;99.90;;;;;;5054374;28;19905;-69
2024/03/23 03:30:58;;;;;;;;;;;6.60;99.90;;;;;;5054414;28;19909;-69
2024/03/23 03:33:24;;;;;;;;;;;6.70;99.90;;;;;;5054274;28;19959;-69
2024/03/23 03:35:49;;;;;;;;;;;6.80;99.90;;;;;;5054048;28;19905;-69
2024/03/23 03:38:14;;;;;;;;;;;6.80;99.90;;;;;;5054525;28;19913;-69
2024/03/23 03:40:41;;;;;;;;;;;6.70;99.90;;;;;;5054152;28;19912;-69
2024/03/23 03:43:07;;;;;;;;;;;6.90;99.90;;;;;;5054133;28;19905;-69
2024/03/23 03:45:32;;;;;;;;;;;7.00;99.90;;;;;;5053746;28;19905;-69
2024/03/23 03:47:59;;;;;;;;;;;6.90;99.90;;;;;;5053955;28;20352;-69
2024/03/23 03:50:24;;;;;;;;;;;6.90;99.90;;;;;;5054235;28;19912;-69
2024/03/23 03:52:50;;;;;;;;;;;6.90;99.90;;;;;;5054068;28;19908;-69
2024/03/23 03:55:16;;;;;;;;;;;6.90;99.90;;;;;;5053923;28;19995;-69
2024/03/23 03:57:41;;;;;;;;;;;6.10;99.90;;;;;;5053481;28;19912;-69
2024/03/23 04:00:10;;;;;;;;;;;6.70;99.90;;;;;;5053876;28;19904;-69
2024/03/23 04:02:37;;;;;;;;;;;6.80;99.90;;;;;;5053643;28;19911;-69
2024/03/23 04:05:02;;;;;;;;;;;6.80;99.90;;;;;;5053737;28;20023;-69
2024/03/23 04:07:28;;;;;;;;;;;6.70;99.90;;;;;;5052917;28;20380;-69
2024/03/23 04:09:54;;;;;;;;;;;6.70;1.00;;;;;;5053608;28;20369;-69
2024/03/23 04:12:20;;;;;;;;;;;6.60;1.00;;;;;;5053586;28;19904;-68
2024/03/23 04:14:45;;;;;;;;;;;6.60;1.00;;;;;;5053467;28;19905;-68
2024/03/23 04:17:11;;;;;;;;;;;6.60;1.00;;;;;;5053089;28;19909;-68
2024/03/23 04:19:36;;;;;;;;;;;6.60;18.50;;;;;;5053866;28;20315;-69
2024/03/23 04:22:03;;;;;;;;;;;6.50;19.00;;;;;;5053605;28;19976;-68
2024/03/23 04:24:29;;;;;;;;;;;6.50;21.60;;;;;;5053266;28;19908;-68
2024/03/23 04:26:54;;;;;;;;;;;6.60;99.90;;;;;;5052864;28;19913;-69
2024/03/23 04:29:20;;;;;;;;;;;6.40;99.90;;;;;;5053452;28;20378;-68
2024/03/23 04:31:45;;;;;;;;;;;6.40;99.90;;;;;;5053256;28;19915;-68
2024/03/23 04:34:11;;;;;;;;;;;6.50;99.90;;;;;;5053198;28;19911;-68
2024/03/23 04:36:37;;;;;;;;;;;6.40;99.90;;;;;;5052877;28;19904;-68
2024/03/23 04:39:02;;;;;;;;;;;6.50;99.90;;;;;;5053016;28;20057;-69
2024/03/23 04:41:28;;;;;;;;;;;6.40;99.90;;;;;;5053157;28;19904;-69
2024/03/23 04:43:53;;;;;;;;;;;6.30;99.90;;;;;;5053028;28;20330;-69
2024/03/23 04:46:20;;;;;;;;;;;6.30;99.90;;;;;;5052604;28;20007;-68
2024/03/23 04:48:45;;;;;;;;;;;6.40;99.90;;;;;;5052855;28;19908;-68
2024/03/23 04:51:13;;;;;;;;;;;6.30;99.90;;;;;;5052905;28;19911;-68
2024/03/23 04:53:39;;;;;;;;;;;6.30;99.90;;;;;;5052773;28;19905;-68
2024/03/23 04:56:04;;;;;;;;;;;6.40;99.90;;;;;;5052562;28;19996;-68
2024/03/23 04:58:30;;;;;;;;;;;6.40;99.90;;;;;;5052710;28;19991;-68
2024/03/23 05:00:56;;;;;;;;;;;6.50;99.90;;;;;;5052722;28;20398;-68
2024/03/23 05:03:21;;;;;;;;;;;6.40;99.90;;;;;;5052652;28;19904;-69
2024/03/23 05:05:48;;;;;;;;;;;6.30;99.90;;;;;;5052340;28;19909;-69
2024/03/23 05:08:13;;;;;;;;;;;5.90;99.90;;;;;;5052480;28;20348;-69
2024/03/23 05:10:39;;;;;;;;;;;6.20;99.90;;;;;;5052580;28;20023;-69
2024/03/23 05:13:04;;;;;;;;;;;6.20;99.90;;;;;;5052526;28;19913;-69
2024/03/23 05:15:30;;;;;;;;;;;6.20;99.90;;;;;;5052205;28;19920;-69
2024/03/23 05:17:55;;;;;;;;;;;6.00;99.90;;;;;;5052317;28;19912;-69
2024/03/23 05:20:21;;;;;;;;;;;6.10;99.90;;;;;;5051831;28;19911;-69
2024/03/23 05:22:46;;;;;;;;;;;5.90;99.90;;;;;;5052382;28;20352;-69
2024/03/23 05:25:12;;;;;;;;;;;5.70;99.90;;;;;;5052364;28;19905;-69
2024/03/23 05:27:37;;;;;;;;;;;5.90;99.90;;;;;;5050666;28;20423;-69
2024/03/23 05:30:03;;;;;;;;;;;5.90;99.90;;;;;;5052387;28;19912;-69
2024/03/23 05:32:29;;;;;;;;;;;5.90;99.90;;;;;;5052399;28;19931;-69
2024/03/23 05:34:57;;;;;;;;;;;5.90;99.90;;;;;;5052230;28;19909;-69
2024/03/23 05:37:23;;;;;;;;;;;5.90;99.90;;;;;;5051885;28;20368;-68
2024/03/23 05:39:49;;;;;;;;;;;5.80;99.90;;;;;;5052236;28;19908;-69
2024/03/23 05:42:18;;;;;;;;;;;5.80;99.90;;;;;;5052153;28;19924;-68
2024/03/23 05:44:45;;;;;;;;;;;5.80;99.90;;;;;;5052130;28;19912;-69
2024/03/23 05:47:10;;;;;;;;;;;5.80;99.90;;;;;;5051967;28;19908;-69
2024/03/23 05:49:37;;;;;;;;;;;5.80;99.90;;;;;;5052199;28;20379;-69
2024/03/23 05:52:03;;;;;;;;;;;5.70;99.90;;;;;;5052054;28;20280;-68
2024/03/23 05:54:29;;;;;;;;;;;5.80;99.90;;;;;;5052024;28;19958;-68
2024/03/23 05:56:55;;;;;;;;;;;5.80;99.90;;;;;;5051671;28;20011;-69
2024/03/23 05:59:20;;;;;;;;;;;5.80;99.90;;;;;;5052061;28;19932;-68
2024/03/23 06:01:47;;;;;;;;;;;5.80;99.90;;;;;;5052027;28;20353;-68
2024/03/23 06:04:13;;;;;;;;;;;5.70;99.90;;;;;;5051962;28;19905;-69
2024/03/23 06:06:39;;;;;;;;;;;5.70;99.90;;;;;;5051626;28;19908;-69
2024/03/23 06:09:04;;;;;;;;;;;5.70;99.90;;;;;;5051736;28;19912;-69
2024/03/23 06:11:30;;;;;;;;;;;6.80;99.90;;;;;;5051924;28;20380;-69
2024/03/23 06:13:56;;;;;;;;;;;5.80;99.90;;;;;;5051875;28;19905;-69
2024/03/23 06:16:24;;;;;;;;;;;5.70;99.90;;;;;;5051744;28;19911;-69
2024/03/23 06:18:50;;;;;;;;;;;5.70;99.90;;;;;;5051832;28;19912;-69
2024/03/23 06:21:15;;;;;;;;;;;5.70;99.90;;;;;;5051819;28;20379;-69
2024/03/23 06:23:50;;;;;;;;;;;5.70;99.90;;;;;;5051792;28;19912;-69
2024/03/23 06:26:19;;;;;;;;;;;5.70;99.90;;;;;;5051510;28;19913;-69
2024/03/23 06:28:45;;;;;;;;;;;5.70;99.90;;;;;;5051650;28;19999;-69
2024/03/23 06:31:10;;;;;;;;;;;5.20;99.90;;;;;;5052860;28;19982;-68
2024/03/23 06:33:36;;;;;;;;;;;5.70;99.90;;;;;;5055459;28;19905;-68
2024/03/23 06:36:03;;;;;;;;;;;5.60;99.90;;;;;;5055152;28;19905;-68
2024/03/23 06:38:28;;;;;;;;;;;5.90;99.90;;;;;;5055305;28;20304;-69
2024/03/23 06:40:54;;;;;;;;;;;6.40;99.90;;;;;;5055482;28;19909;-69
2024/03/23 06:43:19;;;;;;;;;;;5.90;99.90;;;;;;5055104;28;19947;-69
2024/03/23 06:45:51;;;;;;;;;;;6.00;99.90;;;;;;5054973;28;19915;-69
2024/03/23 06:48:17;;;;;;;;;;;5.80;99.90;;;;;;5054981;28;19904;-69
2024/03/23 06:50:42;;;;;;;;;;;6.10;99.90;;;;;;5055110;28;20430;-69
2024/03/23 06:53:08;;;;;;;;;;;6.30;99.90;;;;;;5054994;28;19904;-70
2024/03/23 06:55:33;;;;;;;;;;;6.20;99.90;;;;;;5054821;28;19905;-70
2024/03/23 06:57:59;;;;;;;;;;;6.00;99.90;;;;;;5054928;28;19904;-69
2024/03/23 07:00:25;;;;;;;;;;;6.30;99.90;;;;;;5054991;28;19916;-69
2024/03/23 07:02:50;;;;;;;;;;;6.30;99.90;;;;;;5054887;28;20348;-69
2024/03/23 07:05:15;;;;;;;;;;;6.30;99.90;;;;;;5054816;28;20280;-70
2024/03/23 07:07:41;;;;;;;;;;;6.50;99.90;;;;;;5054539;28;19961;-70
2024/03/23 07:10:07;;;;;;;;;;;6.50;99.90;;;;;;5054774;28;19927;-69
2024/03/23 07:12:32;;;;;;;;;;;6.60;99.90;;;;;;5054792;28;19905;-69
2024/03/23 07:14:58;;;;;;;;;;;6.70;99.90;;;;;;5054622;28;19909;-69
2024/03/23 07:17:23;;;;;;;;;;;6.90;99.90;;;;;;5054265;28;19977;-69
2024/03/23 07:19:48;;;;;;;;;;;7.00;99.90;;;;;;5054575;28;19905;-69
2024/03/23 07:22:14;;;;;;;;;;;7.10;99.90;;;;;;5054536;28;19943;-69
2024/03/23 07:24:40;;;;;;;;;;;7.40;99.90;;;;;;5054502;28;19951;-69
2024/03/23 07:27:09;;;;;;;;;;;7.50;99.90;;;;;;5054425;28;19970;-69
2024/03/23 07:29:38;;;;;;;;;;;7.20;99.90;;;;;;5055114;28;19909;-70
2024/03/23 07:32:03;;;;;;;;;;;7.50;99.90;;;;;;5054529;28;19999;-70
2024/03/23 07:34:29;;;;;;;;;;;7.40;99.90;;;;;;5054289;28;20575;-70
2024/03/23 07:36:54;;;;;;;;;;;7.30;99.90;;;;;;5053985;28;19905;-70
2024/03/23 07:39:20;;;;;;;;;;;7.20;99.90;;;;;;5054511;28;19905;-70
2024/03/23 07:41:45;;;;;;;;;;;7.20;99.90;;;;;;5054296;28;19931;-70
2024/03/23 07:44:11;;;;;;;;;;;7.50;99.10;;;;;;5053430;28;19904;-70
2024/03/23 07:46:36;;;;;;;;;;;7.30;94.10;;;;;;5053793;28;19909;-70
2024/03/23 07:49:04;;;;;;;;;;;7.40;63.30;;;;;;5054072;28;19927;-70
2024/03/23 07:51:29;;;;;;;;;;;7.30;99.90;;;;;;5054128;28;20387;-69
2024/03/23 07:53:55;;;;;;;;;;;7.30;99.90;;;;;;5053948;28;19959;-69
2024/03/23 07:56:21;;;;;;;;;;;7.40;1.00;;;;;;5053727;28;19999;-69
2024/03/23 07:58:47;;;;;;;;;;;7.40;72.30;;;;;;5053833;28;20379;-69
2024/03/23 08:01:16;;;;;;;;;;;7.30;99.90;;;;;;5053825;28;19904;-69
2024/03/23 08:03:43;;;;;;;;;;;7.30;99.90;;;;;;5053716;28;19904;-69
2024/03/23 08:06:19;;;;;;;;;;;7.80;99.90;;;;;;5053420;28;20438;-69
2024/03/23 08:08:46;;;;;;;;;;;7.60;1.00;;;;;;5053579;28;19905;-70
2024/03/23 08:11:11;;;;;;;;;;;7.70;99.90;;;;;;5053646;28;20360;-70
2024/03/23 08:13:38;;;;;;;;;;;7.80;99.90;;;;;;5053479;28;19951;-69
2024/03/23 08:16:04;;;;;;;;;;;7.80;6.50;;;;;;5053259;28;19936;-69
2024/03/23 08:18:31;;;;;;;;;;;7.90;99.90;;;;;;5053211;28;19912;-69
2024/03/23 08:21:03;;;;;;;;;;;7.90;1.00;;;;;;5053465;28;19911;-69
2024/03/23 08:23:30;;;;;;;;;;;7.80;99.90;;;;;;5053406;28;19952;-69
2024/03/23 08:25:59;;;;;;;;;;;7.90;1.00;;;;;;5053032;28;20007;-69
2024/03/23 08:28:25;;;;;;;;;;;7.90;1.00;;;;;;5053237;28;19909;-69
2024/03/23 08:30:50;;;;;;;;;;;7.90;49.60;;;;;;5053295;28;19913;-69
2024/03/23 08:33:16;;;;;;;;;;;7.90;92.60;;;;;;5053084;28;19905;-69
2024/03/23 08:35:42;;;;;;;;;;;8.30;96.60;;;;;;5052943;28;20364;-69
2024/03/23 08:38:07;;;;;;;;;;;8.30;96.30;;;;;;5053022;28;19959;-69
2024/03/23 08:40:32;;;;;;;;;;;8.20;97.10;;;;;;5053123;28;19904;-69
2024/03/23 08:42:58;;;;;;;;;;;8.50;97.10;;;;;;5053074;28;19909;-69
2024/03/23 08:45:26;;;;;;;;;;;8.70;92.30;;;;;;5053004;28;19909;-69
2024/03/23 08:47:52;;;;;;;;;;;8.70;90.00;;;;;;5052554;28;20291;-69
2024/03/23 08:50:18;;;;;;;;;;;8.90;79.70;;;;;;5052953;28;19909;-69
2024/03/23 08:52:43;;;;;;;;;;;8.90;80.60;;;;;;5052964;28;19909;-69
2024/03/23 08:55:09;;;;;;;;;;;8.70;56.80;;;;;;5052679;28;19905;-69
2024/03/23 08:57:35;;;;;;;;;;;8.70;69.90;;;;;;5052476;28;19911;-69
2024/03/23 09:00:00;;;;;;;;;;;8.80;75.50;;;;;;5052761;28;19911;-69
2024/03/23 09:02:26;;;;;;;;;;;8.70;58.10;;;;;;5052751;28;19905;-69
2024/03/23 09:04:51;;;;;;;;;;;8.40;59.80;;;;;;5052681;28;19905;-69
2024/03/23 09:07:17;;;;;;;;;;;8.60;57.10;;;;;;5052305;28;19908;-69
2024/03/23 09:09:42;;;;;;;;;;;8.40;55.60;;;;;;5052604;28;20406;-69
2024/03/23 09:12:08;;;;;;;;;;;8.30;57.90;;;;;;5052582;28;19905;-69
2024/03/23 09:14:33;;;;;;;;;;;8.30;76.60;;;;;;5052604;28;20427;-69
2024/03/23 09:16:59;;;;;;;;;;;8.60;58.20;;;;;;5052005;28;19991;-69
2024/03/23 09:19:26;;;;;;;;;;;8.60;35.50;;;;;;5052413;28;20379;-69
2024/03/23 09:21:52;;;;;;;;;;;8.50;54.30;;;;;;5052473;28;19905;-69
2024/03/23 09:24:17;;;;;;;;;;;8.60;46.20;;;;;;5052361;28;19905;-69
2024/03/23 09:26:43;;;;;;;;;;;8.70;50.00;;;;;;5051986;28;20007;-69
2024/03/23 09:29:09;;;;;;;;;;;8.70;28.80;;;;;;5052320;28;19904;-69
2024/03/23 09:31:34;;;;;;;;;;;8.60;21.70;;;;;;5052242;28;20438;-69
2024/03/23 09:33:59;;;;;;;;;;;8.60;16.90;;;;;;5052360;28;19936;-69
2024/03/23 09:36:25;;;;;;;;;;;8.70;25.10;;;;;;5052061;28;19936;-69
2024/03/23 09:38:50;;;;;;;;;;;8.80;32.70;;;;;;5052085;28;19905;-69
2024/03/23 09:41:16;;;;;;;;;;;9.00;32.30;;;;;;5052157;28;20359;-69
2024/03/23 09:43:41;;;;;;;;;;;8.60;21.40;;;;;;5052222;28;19911;-69
2024/03/23 09:46:07;;;;;;;;;;;9.00;25.20;;;;;;5051748;28;19908;-69
2024/03/23 09:48:33;;;;;;;;;;;8.80;21.30;;;;;;5052011;28;19960;-69
2024/03/23 09:50:59;;;;;;;;;;;8.90;19.70;;;;;;5051920;28;20329;-69
2024/03/23 09:53:24;;;;;;;;;;;9.00;13.40;;;;;;5051979;28;19909;-69
2024/03/23 09:55:50;;;;;;;;;;;9.00;21.40;;;;;;5051610;28;20322;-69
2024/03/23 09:58:17;;;;;;;;;;;8.90;16.20;;;;;;5051874;28;19908;-69
2024/03/23 10:00:42;;;;;;;;;;;9.00;13.50;;;;;;5049568;28;19909;-69
2024/03/23 10:03:10;;;;;;;;;;;8.70;14.90;;;;;;5050271;28;19905;-69
2024/03/23 10:05:35;;;;;;;;;;;8.80;17.30;;;;;;5051282;28;20376;-69
2024/03/23 10:08:17;;;;;;;;;;;8.50;24.70;;;;;;5052597;28;19912;-70
2024/03/23 10:10:42;;;;;;;;;;;7.80;38.60;;;;;;5052977;28;20296;-69
2024/03/23 10:13:08;;;;;;;;;;;7.10;73.30;;;;;;5053766;28;19911;-68
2024/03/23 10:15:34;;;;;;;;;;;6.90;92.80;;;;;;5053431;28;19908;-68
2024/03/23 10:18:17;;;;;;;;;;;6.70;99.90;;;;;;5055128;28;20029;-69
2024/03/23 10:20:43;;;;;;;;;;;7.40;99.90;;;;;;5053997;28;19908;-69
2024/03/23 10:23:15;;;;;;;;;;;6.70;99.90;;;;;;5054722;28;19904;-69
2024/03/23 10:25:41;;;;;;;;;;;6.70;99.90;;;;;;5052064;28;19958;-69
2024/03/23 10:28:06;;;;;;;;;;;7.40;99.90;;;;;;5055298;28;19909;-69
2024/03/23 10:30:32;;;;;;;;;;;7.20;99.90;;;;;;5054413;28;20004;-69
2024/03/23 10:33:10;;;;;;;;;;;7.50;99.90;;;;;;5055672;28;20344;-68
2024/03/23 10:35:40;;;;;;;;;;;7.60;92.90;;;;;;5055321;28;19904;-69
2024/03/23 10:38:08;;;;;;;;;;;7.60;76.90;;;;;;5054750;28;20000;-68
2024/03/23 10:40:35;;;;;;;;;;;7.40;92.70;;;;;;5056109;28;19905;-68
2024/03/23 10:43:00;;;;;;;;;;;7.10;99.90;;;;;;5055841;28;19904;-68
2024/03/23 10:45:26;;;;;;;;;;;7.20;99.90;;;;;;5054648;28;19905;-68
2024/03/23 10:47:52;;;;;;;;;;;7.30;99.90;;;;;;5054768;28;19954;-68
2024/03/23 10:50:18;;;;;;;;;;;7.50;99.90;;;;;;5055142;28;19905;-69
2024/03/23 10:52:47;;;;;;;;;;;7.70;96.40;;;;;;5054405;28;19908;-68
2024/03/23 10:55:15;;;;;;;;;;;7.90;93.50;;;;;;5054494;28;19950;-68
2024/03/23 10:57:42;;;;;;;;;;;8.00;81.50;;;;;;5054202;28;20283;-68
2024/03/23 11:00:08;;;;;;;;;;;8.30;64.80;;;;;;5054375;28;19908;-67
2024/03/23 11:02:34;;;;;;;;;;;8.30;48.10;;;;;;5054712;28;19936;-68
2024/03/23 11:04:59;;;;;;;;;;;8.30;29.10;;;;;;5054643;28;19955;-68
2024/03/23 11:07:29;;;;;;;;;;;8.60;41.10;;;;;;5053869;28;20018;-68
2024/03/23 11:09:54;;;;;;;;;;;8.40;27.90;;;;;;5054866;28;19952;-68
2024/03/23 11:12:22;;;;;;;;;;;8.70;25.80;;;;;;5054722;28;19936;-68
2024/03/23 11:14:49;;;;;;;;;;;8.50;24.00;;;;;;5054183;28;19954;-68
2024/03/23 11:17:18;;;;;;;;;;;8.80;17.30;;;;;;5053358;28;19923;-68
2024/03/23 11:19:43;;;;;;;;;;;8.90;10.90;;;;;;5054361;28;19905;-68
2024/03/23 11:22:09;;;;;;;;;;;9.00;11.20;;;;;;5053971;28;19912;-68
2024/03/23 11:24:34;;;;;;;;;;;9.20;1.30;;;;;;5054569;28;19909;-68
2024/03/23 11:27:02;;;;;;;;;;;9.20;1.00;;;;;;5054000;28;19919;-68
2024/03/23 11:29:29;;;;;;;;;;;9.50;1.00;;;;;;5054067;28;19911;-68
2024/03/23 11:31:55;;;;;;;;;;;9.30;1.00;;;;;;5054349;28;19908;-68
2024/03/23 11:34:21;;;;;;;;;;;8.60;1.00;;;;;;5054161;28;19949;-68
2024/03/23 11:36:46;;;;;;;;;;;7.40;1.00;;;;;;5053990;28;19904;-68
2024/03/23 11:39:16;;;;;;;;;;;7.30;99.90;;;;;;5053893;28;19930;-68
2024/03/23 11:41:48;;;;;;;;;;;7.20;99.90;;;;;;5054055;28;20280;-68
2024/03/23 11:44:25;;;;;;;;;;;7.00;99.90;;;;;;5053908;28;19916;-68
2024/03/23 11:46:52;;;;;;;;;;;7.00;99.90;;;;;;5053691;28;19909;-68
2024/03/23 11:49:23;;;;;;;;;;;6.90;1.00;;;;;;5054006;28;19905;-68
2024/03/23 11:51:49;;;;;;;;;;;7.20;1.00;;;;;;5053662;28;19904;-68
2024/03/23 11:54:14;;;;;;;;;;;7.90;87.30;;;;;;5054014;28;19927;-68
2024/03/23 11:56:40;;;;;;;;;;;8.70;27.50;;;;;;5053607;28;20288;-68
2024/03/23 11:59:08;;;;;;;;;;;9.20;9.40;;;;;;5053458;28;19905;-68
2024/03/23 12:01:33;;;;;;;;;;;8.90;8.80;;;;;;5053722;28;19909;-68
2024/03/23 12:03:59;;;;;;;;;;;8.80;8.30;;;;;;5053670;28;19905;-68
2024/03/23 12:06:25;;;;;;;;;;;8.90;14.00;;;;;;5053332;28;20343;-68
2024/03/23 12:08:51;;;;;;;;;;;7.60;15.10;;;;;;5053423;28;19905;-68
2024/03/23 12:11:17;;;;;;;;;;;6.60;49.30;;;;;;5053501;28;20249;-68
2024/03/23 12:13:44;;;;;;;;;;;5.90;90.10;;;;;;5053662;28;19904;-68
2024/03/23 12:16:22;;;;;;;;;;;5.50;95.50;;;;;;5052910;28;19948;-68
2024/03/23 12:18:49;;;;;;;;;;;5.20;99.90;;;;;;5053256;28;20399;-68
2024/03/23 12:21:15;;;;;;;;;;;4.90;99.90;;;;;;5053141;28;19915;-68
2024/03/23 12:23:40;;;;;;;;;;;4.50;99.90;;;;;;5053155;28;19909;-68
2024/03/23 12:26:06;;;;;;;;;;;5.20;99.90;;;;;;5053018;28;20392;-68
2024/03/23 12:28:32;;;;;;;;;;;5.40;99.90;;;;;;5052877;28;19959;-67
2024/03/23 12:30:57;;;;;;;;;;;6.00;78.10;;;;;;5052671;28;20319;-67
2024/03/23 12:33:23;;;;;;;;;;;6.40;99.90;;;;;;5053200;28;20148;-67
2024/03/23 12:35:49;;;;;;;;;;;6.40;91.30;;;;;;5052417;28;19940;-67
2024/03/23 12:38:15;;;;;;;;;;;6.70;53.00;;;;;;5052092;28;20403;-67
2024/03/23 12:40:41;;;;;;;;;;;6.70;85.10;;;;;;5053473;28;19931;-67
2024/03/23 12:43:07;;;;;;;;;;;7.10;51.40;;;;;;5053878;28;19905;-67
2024/03/23 12:45:33;;;;;;;;;;;7.10;32.00;;;;;;5052774;28;19905;-68
2024/03/23 12:47:58;;;;;;;;;;;7.20;27.80;;;;;;5053648;28;20322;-68
2024/03/23 12:50:24;;;;;;;;;;;7.50;24.80;;;;;;5054259;28;19942;-68
2024/03/23 12:52:49;;;;;;;;;;;7.50;25.10;;;;;;5053435;28;19909;-67
2024/03/23 12:55:14;;;;;;;;;;;7.70;26.70;;;;;;5054145;28;19911;-67
2024/03/23 12:57:43;;;;;;;;;;;7.70;17.20;;;;;;5053440;28;20271;-67
2024/03/23 13:00:12;;;;;;;;;;;8.20;20.20;;;;;;5050916;28;19948;-68
2024/03/23 13:02:38;;;;;;;;;;;9.00;13.50;;;;;;5052822;28;19916;-68
2024/03/23 13:05:04;;;;;;;;;;;10.40;4.00;;;;;;5050582;28;20315;-68
2024/03/23 13:07:30;;;;;;;;;;;10.80;1.00;;;;;;5047768;28;19962;-67
2024/03/23 13:09:56;;;;;;;;;;;11.80;1.00;;;;;;5048268;28;20331;-68
2024/03/23 13:12:22;;;;;;;;;;;12.70;1.00;;;;;;5047762;28;19901;-67
2024/03/23 13:14:48;;;;;;;;;;;12.50;1.00;;;;;;5048355;28;19995;-68
2024/03/23 13:17:13;;;;;;;;;;;12.00;1.00;;;;;;5047342;28;19995;-68
2024/03/23 13:19:39;;;;;;;;;;;12.10;1.00;;;;;;5049104;28;20351;-68
2024/03/23 13:22:05;;;;;;;;;;;12.20;1.00;;;;;;5047573;28;19952;-68
2024/03/23 13:24:31;;;;;;;;;;;12.80;1.00;;;;;;5048126;28;19928;-68
2024/03/23 13:26:56;;;;;;;;;;;11.80;1.00;;;;;;5048063;28;20291;-67
2024/03/23 13:29:22;;;;;;;;;;;11.80;1.00;;;;;;5047499;28;19963;-67
2024/03/23 13:31:48;;;;;;;;;;;10.80;1.00;;;;;;5042256;28;19913;-68
2024/03/23 13:34:17;;;;;;;;;;;9.60;25.90;;;;;;5047611;28;20374;-67
2024/03/23 13:36:43;;;;;;;;;;;8.40;4.60;;;;;;5045923;28;20402;-67
2024/03/23 13:39:11;;;;;;;;;;;8.30;99.90;;;;;;5047149;28;19909;-67
2024/03/23 13:41:40;;;;;;;;;;;7.50;99.90;;;;;;5046927;28;19905;-67
2024/03/23 13:44:10;;;;;;;;;;;7.20;31.30;;;;;;5048043;28;19916;-68
2024/03/23 13:46:36;;;;;;;;;;;7.00;99.90;;;;;;5047369;28;19909;-68
2024/03/23 13:49:01;;;;;;;;;;;7.40;99.90;;;;;;5049682;28;20280;-67
2024/03/23 13:51:27;;;;;;;;;;;7.40;27.10;;;;;;5051501;28;20421;-67
2024/03/23 13:53:53;;;;;;;;;;;8.10;1.00;;;;;;5047442;28;19905;-66
2024/03/23 13:56:19;;;;;;;;;;;8.80;1.00;;;;;;5046869;28;19999;-67
2024/03/23 13:58:46;;;;;;;;;;;9.10;1.00;;;;;;5046701;28;19992;-67
2024/03/23 14:01:15;;;;;;;;;;;8.90;99.90;;;;;;5046973;28;19904;-66
2024/03/23 14:03:41;;;;;;;;;;;8.90;1.00;;;;;;5047443;28;19904;-68
2024/03/23 14:06:07;;;;;;;;;;;9.30;1.00;;;;;;5045682;28;19915;-68
2024/03/23 14:08:35;;;;;;;;;;;9.50;1.00;;;;;;5046684;28;19915;-69
2024/03/23 14:11:01;;;;;;;;;;;10.10;66.40;;;;;;5047456;28;20272;-68
2024/03/23 14:13:27;;;;;;;;;;;11.60;1.00;;;;;;5046930;28;19905;-68
2024/03/23 14:15:56;;;;;;;;;;;13.30;1.00;;;;;;5046263;28;20565;-69
2024/03/23 14:18:24;;;;;;;;;;;14.50;1.00;;;;;;5047134;28;19912;-68
2024/03/23 14:20:50;;;;;;;;;;;15.10;1.00;;;;;;5047361;28;19908;-67
2024/03/23 14:23:15;;;;;;;;;;;15.20;1.00;;;;;;5049596;28;20268;-68
2024/03/23 14:25:41;;;;;;;;;;;14.50;1.00;;;;;;5046728;28;20430;-67